Time;durP1;ratioP1;P1;durP2;ratioP2;P2;SDS_P1;SDS_P2;PMS_P1;PMS_P2;Temp;Humidity;BMP_temperature;BMP_pressure;BME280_temperature;BME280_humidity;BME280_pressure;Samples;Min_cycle;Max_cycle;Signal;HPM_P1;HPM_P2
2021/08/05 00:01:01;;;;;;;7.47;6.68;;;;;;;15.77;100.00;101172.19;3598865;40;20046;-63
2021/08/05 00:03:27;;;;;;;5.88;5.25;;;;;;;15.86;100.00;101169.56;3598816;39;20036;-63
2021/08/05 00:05:55;;;;;;;7.45;6.75;;;;;;;15.92;100.00;101174.34;3598885;39;20290;-63
2021/08/05 00:08:21;;;;;;;7.13;6.00;;;;;;;15.91;100.00;101159.88;3598727;39;20062;-63
2021/08/05 00:10:48;;;;;;;6.85;5.85;;;;;;;15.90;100.00;101162.78;3599252;39;20040;-63
2021/08/05 00:13:14;;;;;;;8.25;6.82;;;;;;;15.77;100.00;101164.06;3599167;39;20040;-63
2021/08/05 00:15:41;;;;;;;8.02;5.93;;;;;;;15.82;100.00;101162.75;3598695;40;20052;-63
2021/08/05 00:18:07;;;;;;;9.63;6.63;;;;;;;15.74;100.00;101160.84;3644754;22;20041;-63
2021/08/05 00:20:34;;;;;;;7.95;6.70;;;;;;;15.72;100.00;101157.41;3599152;39;20044;-62
2021/08/05 00:23:01;;;;;;;9.50;7.13;;;;;;;15.61;100.00;101149.56;3599012;39;20032;-63
2021/08/05 00:25:28;;;;;;;9.77;8.43;;;;;;;15.52;100.00;101156.81;3599020;39;20044;-63
2021/08/05 00:27:54;;;;;;;8.80;7.28;;;;;;;15.50;100.00;101147.97;3598973;39;20033;-62
2021/08/05 00:30:22;;;;;;;7.95;7.22;;;;;;;15.51;100.00;101150.53;3598498;39;20043;-63
2021/08/05 00:32:48;;;;;;;8.07;7.28;;;;;;;15.50;100.00;101153.41;3598922;39;20040;-62
2021/08/05 00:35:15;;;;;;;9.23;8.32;;;;;;;15.41;100.00;101149.78;3599103;39;20060;-62
2021/08/05 00:37:41;;;;;;;9.90;8.30;;;;;;;15.37;100.00;101154.69;3599237;39;20302;-63
2021/08/05 00:40:10;;;;;;;10.13;8.20;;;;;;;15.32;100.00;101148.06;3598264;39;20043;-63
2021/08/05 00:42:36;;;;;;;9.25;8.15;;;;;;;15.27;100.00;101150.38;3599407;39;20066;-63
2021/08/05 00:45:03;;;;;;;9.32;8.27;;;;;;;15.23;100.00;101145.28;3598784;39;20113;-64
2021/08/05 00:47:30;;;;;;;10.18;8.82;;;;;;;15.18;100.00;101152.19;3598821;39;20040;-63
2021/08/05 00:49:57;;;;;;;9.82;8.82;;;;;;;15.07;100.00;101146.03;3598503;39;20380;-63
2021/08/05 00:52:23;;;;;;;12.00;9.30;;;;;;;15.01;100.00;101146.66;3598569;39;20052;-63
2021/08/05 00:54:50;;;;;;;11.10;10.00;;;;;;;14.93;100.00;101141.19;3598727;39;20103;-63
2021/08/05 00:57:18;;;;;;;12.02;10.15;;;;;;;14.91;100.00;101137.75;3598902;39;20040;-63
2021/08/05 00:59:44;;;;;;;10.02;9.00;;;;;;;14.85;100.00;101138.41;3598850;39;20056;-63
2021/08/05 01:02:14;;;;;;;9.63;8.57;;;;;;;14.81;100.00;101142.44;3598323;39;20040;-63
2021/08/05 01:04:40;;;;;;;;;;;;;;;14.73;100.00;101139.66;3599430;39;20056;-62
2021/08/05 01:07:14;;;;;;;10.13;9.13;;;;;;;14.62;100.00;101135.31;3598740;39;19950;-63
2021/08/05 01:09:48;;;;;;;9.45;8.55;;;;;;;14.60;100.00;101135.44;3598823;39;20052;-62
2021/08/05 01:12:22;;;;;;;10.05;9.05;;;;;;;14.65;100.00;101138.59;3598500;39;20034;-62
2021/08/05 01:14:58;;;;;;;11.13;9.07;;;;;;;14.60;100.00;101132.75;3598555;40;20380;-62
2021/08/05 01:17:26;;;;;;;11.63;9.85;;;;;;;14.48;100.00;101131.28;3598706;39;20032;-63
2021/08/05 01:19:56;;;;;;;9.82;8.88;;;;;;;14.50;100.00;101123.84;3598563;39;20056;-63
2021/08/05 01:22:30;;;;;;;10.73;9.63;;;;;;;14.44;100.00;101124.47;3598450;39;20056;-63
2021/08/05 01:25:02;;;;;;;10.95;9.77;;;;;;;14.43;100.00;101125.47;3597484;39;20064;-62
2021/08/05 01:27:31;;;;;;;10.88;9.65;;;;;;;14.39;100.00;101132.22;3598650;39;20042;-63
2021/08/05 01:29:58;;;;;;;13.50;10.45;;;;;;;14.28;100.00;101125.16;3598564;39;20028;-64
2021/08/05 01:32:25;;;;;;;10.50;9.05;;;;;;;14.27;100.00;101126.19;3598432;39;20129;-63
2021/08/05 01:34:52;;;;;;;11.35;10.25;;;;;;;14.24;100.00;101123.78;3598416;39;20028;-63
2021/08/05 01:37:20;;;;;;;10.63;9.52;;;;;;;14.16;100.00;101120.00;3598595;39;20044;-62
2021/08/05 01:39:47;;;;;;;10.13;8.97;;;;;;;14.12;100.00;101115.00;3598342;39;20028;-62
2021/08/05 01:42:17;;;;;;;10.63;8.98;;;;;;;14.09;100.00;101110.78;3597774;39;20280;-63
2021/08/05 01:44:46;;;;;;;12.45;10.82;;;;;;;13.99;100.00;101110.84;3598096;39;20044;-63
2021/08/05 01:47:14;;;;;;;11.88;10.23;;;;;;;13.96;100.00;101105.72;3598396;39;20048;-63
2021/08/05 01:49:42;;;;;;;11.47;9.73;;;;;;;13.86;100.00;101104.94;3598340;39;20028;-63
2021/08/05 01:52:12;;;;;;;11.50;9.88;;;;;;;13.86;100.00;101104.09;3598144;39;20040;-63
2021/08/05 01:54:38;;;;;;;13.15;11.20;;;;;;;13.73;100.00;101109.84;3598326;39;20028;-63
2021/08/05 01:57:05;;;;;;;15.77;11.35;;;;;;;13.77;100.00;101105.84;3596375;40;20047;-63
2021/08/05 01:59:32;;;;;;;11.25;10.05;;;;;;;13.79;100.00;101090.31;3598416;39;20125;-62
2021/08/05 02:02:00;;;;;;;12.57;9.82;;;;;;;13.75;100.00;101097.88;3598332;39;20028;-62
2021/08/05 02:04:43;;;;;;;11.65;10.45;;;;;;;13.74;100.00;101090.78;3598447;39;20312;-63
2021/08/05 02:07:14;;;;;;;11.75;10.55;;;;;;;13.73;100.00;101088.22;3598340;39;20037;-63
2021/08/05 02:09:45;;;;;;;14.00;10.30;;;;;;;13.70;100.00;101088.53;3598470;39;20044;-63
2021/08/05 02:12:12;;;;;;;10.95;9.85;;;;;;;13.71;100.00;101093.78;3598363;39;20028;-62
2021/08/05 02:14:39;;;;;;;11.60;10.40;;;;;;;13.65;100.00;101083.56;3598286;40;20044;-62
2021/08/05 02:17:09;;;;;;;11.35;10.15;;;;;;;13.57;100.00;101089.69;3598781;39;20072;-63
2021/08/05 02:19:36;;;;;;;12.48;9.90;;;;;;;13.52;100.00;101083.91;3598428;39;20076;-62
2021/08/05 02:22:03;;;;;;;12.82;10.30;;;;;;;13.49;100.00;101082.34;3597507;39;20046;-63
2021/08/05 02:24:31;;;;;;;11.35;10.15;;;;;;;13.47;100.00;101086.19;3592238;40;20030;-63
2021/08/05 02:26:58;;;;;;;11.88;10.70;;;;;;;13.45;100.00;101074.69;3598635;39;20290;-63
2021/08/05 02:29:25;;;;;;;12.68;10.57;;;;;;;13.42;100.00;101069.59;3597874;39;20036;-63
2021/08/05 02:31:52;;;;;;;12.70;11.40;;;;;;;13.38;100.00;101062.78;3598107;39;20074;-62
2021/08/05 02:34:21;;;;;;;14.13;12.52;;;;;;;13.33;100.00;101069.44;3597708;39;20044;-62
2021/08/05 02:36:48;;;;;;;14.68;11.35;;;;;;;13.37;100.00;101071.88;3598188;39;20028;-63
2021/08/05 02:39:15;;;;;;;13.23;10.88;;;;;;;13.33;100.00;101074.84;3598425;39;20055;-62
2021/08/05 02:41:43;;;;;;;13.30;11.32;;;;;;;13.21;100.00;101067.94;3598308;39;20330;-62
2021/08/05 02:44:09;;;;;;;14.30;12.15;;;;;;;13.20;100.00;101079.75;3597633;39;20032;-63
2021/08/05 02:46:37;;;;;;;11.75;10.55;;;;;;;13.17;100.00;101077.34;3598023;39;20043;-62
2021/08/05 02:49:04;;;;;;;12.52;11.23;;;;;;;13.17;100.00;101071.94;3598001;39;20414;-62
2021/08/05 02:51:33;;;;;;;11.32;10.25;;;;;;;13.14;100.00;101072.22;3597803;39;20072;-62
2021/08/05 02:54:00;;;;;;;12.90;11.57;;;;;;;13.12;100.00;101074.25;3597757;39;20039;-62
2021/08/05 02:56:26;;;;;;;11.32;10.23;;;;;;;13.14;100.00;101081.16;3595448;39;20427;-62
2021/08/05 02:58:54;;;;;;;11.73;10.40;;;;;;;13.12;100.00;101076.94;3597988;39;20051;-62
2021/08/05 03:01:21;;;;;;;12.35;11.13;;;;;;;13.08;100.00;101062.84;3597849;39;20383;-62
2021/08/05 03:03:51;;;;;;;12.55;11.25;;;;;;;13.03;100.00;101064.28;3597967;39;20028;-63
2021/08/05 03:06:23;;;;;;;12.45;11.15;;;;;;;13.00;100.00;101056.47;3597861;39;20032;-63
2021/08/05 03:08:51;;;;;;;12.35;11.15;;;;;;;12.96;100.00;101051.38;3597958;39;20260;-62
2021/08/05 03:11:17;;;;;;;13.75;11.75;;;;;;;12.91;100.00;101066.31;3598158;39;20048;-63
2021/08/05 03:13:44;;;;;;;12.98;11.65;;;;;;;12.91;100.00;101064.47;3597944;39;20043;-62
2021/08/05 03:16:11;;;;;;;13.18;11.85;;;;;;;12.90;100.00;101054.66;3597329;39;20039;-62
2021/08/05 03:18:37;;;;;;;12.48;11.25;;;;;;;12.93;100.00;101054.38;3597715;39;20097;-62
2021/08/05 03:21:04;;;;;;;12.35;11.05;;;;;;;13.01;100.00;101050.09;3597752;39;20032;-63
2021/08/05 03:23:30;;;;;;;13.98;12.48;;;;;;;12.95;100.00;101052.38;3597731;39;20028;-62
2021/08/05 03:25:58;;;;;;;12.85;11.48;;;;;;;13.04;100.00;101056.03;3597743;39;20298;-63
2021/08/05 03:28:24;;;;;;;12.23;10.93;;;;;;;13.01;100.00;101060.91;3597569;39;20446;-62
2021/08/05 03:30:51;;;;;;;14.02;12.10;;;;;;;13.01;100.00;101052.78;3597746;39;20268;-62
2021/08/05 03:33:17;;;;;;;12.95;11.63;;;;;;;12.99;100.00;101050.22;3598035;39;20129;-62
2021/08/05 03:35:44;;;;;;;14.45;12.70;;;;;;;12.99;100.00;101049.41;3597891;39;20032;-62
2021/08/05 03:38:10;;;;;;;12.90;11.60;;;;;;;12.93;100.00;101054.38;3597365;39;20275;-62
2021/08/05 03:40:36;;;;;;;14.65;12.85;;;;;;;12.93;100.00;101048.97;3653952;22;20066;-62
2021/08/05 03:43:04;;;;;;;14.43;12.63;;;;;;;12.91;100.00;101045.56;3606180;39;20119;-62
2021/08/05 03:45:31;;;;;;;13.93;12.52;;;;;;;12.94;100.00;101047.97;3607735;39;20061;-62
2021/08/05 03:47:57;;;;;;;13.23;11.93;;;;;;;12.92;100.00;101041.84;3607953;39;20044;-62
2021/08/05 03:50:24;;;;;;;17.20;13.50;;;;;;;12.93;100.00;101040.03;3607562;39;20051;-63
2021/08/05 03:52:50;;;;;;;12.93;11.73;;;;;;;13.05;100.00;101040.69;3608005;39;20055;-62
2021/08/05 03:55:17;;;;;;;13.25;11.85;;;;;;;13.08;100.00;101035.00;3607922;39;20296;-62
2021/08/05 03:57:46;;;;;;;14.20;12.57;;;;;;;13.07;100.00;101038.69;3607670;39;20038;-62
2021/08/05 04:00:15;;;;;;;;;;;;;;;13.10;100.00;101035.69;3608116;39;20024;-62
2021/08/05 04:02:42;;;;;;;15.27;13.68;;;;;;;13.05;100.00;101035.28;3608180;39;19940;-62
2021/08/05 04:05:10;;;;;;;14.70;13.27;;;;;;;13.01;100.00;101033.88;3609017;39;20038;-63
2021/08/05 04:07:36;;;;;;;15.93;14.27;;;;;;;13.05;100.00;101040.69;3609403;39;20363;-62
2021/08/05 04:10:03;;;;;;;17.13;15.43;;;;;;;13.10;100.00;101044.66;3608917;39;20039;-62
2021/08/05 04:12:29;;;;;;;15.07;13.45;;;;;;;13.13;100.00;101047.06;3609097;39;20032;-63
2021/08/05 04:14:56;;;;;;;15.20;13.70;;;;;;;13.21;100.00;101045.47;3609253;39;20064;-63
2021/08/05 04:17:24;;;;;;;17.67;15.38;;;;;;;13.26;100.00;101044.00;3609249;39;20038;-62
2021/08/05 04:19:50;;;;;;;16.70;13.25;;;;;;;13.31;100.00;101032.75;3609172;39;20042;-63
2021/08/05 04:22:17;;;;;;;15.65;13.98;;;;;;;13.41;100.00;101035.44;3608547;39;20031;-63
2021/08/05 04:24:43;;;;;;;15.57;14.07;;;;;;;13.35;100.00;101034.16;3609046;39;20037;-63
2021/08/05 04:27:10;;;;;;;16.70;15.00;;;;;;;13.34;100.00;101032.50;3609142;39;20031;-62
2021/08/05 04:29:36;;;;;;;16.42;13.93;;;;;;;13.33;100.00;101039.69;3608713;39;20364;-62
2021/08/05 04:32:03;;;;;;;17.05;15.20;;;;;;;13.36;100.00;101043.16;3608813;39;20065;-63
2021/08/05 04:34:31;;;;;;;14.70;12.95;;;;;;;13.47;100.00;101040.22;3609106;39;20394;-63
2021/08/05 04:36:57;;;;;;;16.25;14.40;;;;;;;13.44;100.00;101043.22;3609132;39;20305;-63
2021/08/05 04:39:24;;;;;;;16.90;14.27;;;;;;;13.44;100.00;101043.22;3609214;39;20042;-63
2021/08/05 04:41:51;;;;;;;15.57;13.98;;;;;;;13.40;100.00;101041.88;3609273;39;20059;-64
2021/08/05 04:44:17;;;;;;;17.25;15.52;;;;;;;13.38;100.00;101039.28;3608707;39;20040;-63
2021/08/05 04:46:44;;;;;;;16.40;14.68;;;;;;;13.54;100.00;101041.34;3608825;39;20381;-62
2021/08/05 04:49:10;;;;;;;16.83;14.93;;;;;;;13.61;100.00;101030.78;3608937;39;20071;-63
2021/08/05 04:54:24;;;;;;;17.40;15.60;;;;;;;13.74;100.00;101035.81;3622048;22;20124;-63
2021/08/05 04:56:50;;;;;;;15.75;14.23;;;;;;;13.92;100.00;101033.97;3596283;39;20038;-63
2021/08/05 04:59:17;;;;;;;17.67;15.48;;;;;;;14.05;100.00;101038.16;3657402;22;20048;-62
2021/08/05 05:01:45;;;;;;;15.85;14.18;;;;;;;14.02;100.00;101032.03;3598256;39;20047;-63
2021/08/05 05:04:12;;;;;;;15.07;12.93;;;;;;;14.21;100.00;101035.59;3598287;39;20318;-63
2021/08/05 05:06:38;;;;;;;15.85;14.15;;;;;;;14.22;100.00;101021.03;3598667;39;20036;-63
2021/08/05 05:09:05;;;;;;;15.27;13.82;;;;;;;14.29;100.00;101019.41;3658987;22;20046;-62
2021/08/05 05:12:20;;;;;;;17.58;15.93;;;;;;;14.39;100.00;101016.63;3637601;22;20068;-62
2021/08/05 05:14:47;;;;;;;17.83;15.30;;;;;;;14.37;100.00;101024.91;3584753;40;20293;-63
2021/08/05 05:17:14;;;;;;;18.02;16.13;;;;;;;14.40;100.00;101029.16;3588416;40;20048;-63
2021/08/05 05:19:40;;;;;;;16.35;14.65;;;;;;;14.55;100.00;101024.03;3588420;40;20029;-63
2021/08/05 05:22:07;;;;;;;16.42;14.68;;;;;;;14.66;100.00;101021.09;3588245;40;20037;-63
2021/08/05 05:24:33;;;;;;;20.17;17.42;;;;;;;14.53;100.00;101024.19;3588210;40;20025;-63
2021/08/05 05:26:59;;;;;;;19.15;17.15;;;;;;;14.65;100.00;101019.41;3588606;40;20032;-63
2021/08/05 05:29:26;;;;;;;17.80;15.90;;;;;;;14.74;100.00;101016.72;3588503;40;20041;-63
2021/08/05 05:31:54;;;;;;;18.17;14.70;;;;;;;14.92;100.00;101008.56;3588569;40;20046;-62
2021/08/05 05:34:21;;;;;;;15.38;13.80;;;;;;;15.13;100.00;101011.69;3588396;40;20040;-63
2021/08/05 05:36:47;;;;;;;19.00;14.57;;;;;;;15.03;100.00;101006.41;3588830;40;20045;-63
2021/08/05 05:39:14;;;;;;;17.75;14.93;;;;;;;14.87;100.00;101001.75;3588350;40;20028;-63
2021/08/05 05:41:40;;;;;;;16.58;14.90;;;;;;;14.89;100.00;101007.00;3588507;40;20058;-63
2021/08/05 05:44:07;;;;;;;18.15;16.42;;;;;;;15.09;100.00;101009.47;3587819;40;20032;-63
2021/08/05 05:46:33;;;;;;;14.55;13.05;;;;;;;15.15;100.00;101011.53;3588282;40;20040;-63
2021/08/05 05:49:01;;;;;;;15.70;14.15;;;;;;;15.31;100.00;101006.19;3588353;40;20040;-63
2021/08/05 05:51:27;;;;;;;16.25;13.40;;;;;;;15.40;100.00;101007.91;3588392;40;20046;-63
2021/08/05 05:53:54;;;;;;;14.82;13.32;;;;;;;15.58;100.00;101004.25;3588334;40;20413;-63
2021/08/05 05:56:20;;;;;;;18.27;13.90;;;;;;;15.80;100.00;100997.38;3587638;40;20035;-63
2021/08/05 05:58:47;;;;;;;13.10;11.88;;;;;;;15.98;100.00;100999.94;3588133;40;20039;-63
2021/08/05 06:01:13;;;;;;;13.43;12.13;;;;;;;16.08;100.00;101007.94;3588275;40;20097;-63
2021/08/05 06:03:40;;;;;;;12.57;11.25;;;;;;;16.25;100.00;101003.31;3588326;40;20038;-63
2021/08/05 06:06:07;;;;;;;13.32;11.80;;;;;;;16.41;100.00;101006.03;3587922;40;20391;-62
2021/08/05 06:08:34;;;;;;;13.90;12.55;;;;;;;16.49;100.00;100998.91;3588070;40;20043;-62
2021/08/05 06:11:00;;;;;;;12.05;10.85;;;;;;;16.64;100.00;101003.47;3588397;40;20045;-63
2021/08/05 06:13:27;;;;;;;12.07;10.88;;;;;;;16.91;100.00;101000.56;3588314;40;20090;-63
2021/08/05 06:15:53;;;;;;;10.85;9.82;;;;;;;17.14;100.00;101000.66;3588271;40;20049;-63
2021/08/05 06:18:19;;;;;;;11.20;10.15;;;;;;;17.12;100.00;101003.56;3588037;40;20039;-63
2021/08/05 06:20:46;;;;;;;11.60;10.02;;;;;;;17.25;100.00;101002.13;3639749;22;20070;-63
2021/08/05 06:23:14;;;;;;;12.00;9.93;;;;;;;17.31;100.00;101006.84;3598375;39;20352;-63
2021/08/05 06:25:40;;;;;;;14.15;9.90;;;;;;;17.37;100.00;101008.88;3598296;40;20032;-63
2021/08/05 06:28:07;;;;;;;9.73;8.50;;;;;;;17.45;100.00;101008.84;3597797;39;20028;-63
2021/08/05 06:30:33;;;;;;;10.55;9.48;;;;;;;17.45;100.00;101014.28;3597985;39;20043;-63
2021/08/05 06:33:00;;;;;;;10.77;9.65;;;;;;;17.52;100.00;101015.28;3598261;39;20068;-63
2021/08/05 06:35:26;;;;;;;11.40;9.02;;;;;;;17.74;100.00;101015.50;3598089;39;20040;-63
2021/08/05 06:37:53;;;;;;;11.55;9.55;;;;;;;17.72;100.00;101012.09;3597847;39;20028;-63
2021/08/05 06:40:22;;;;;;;12.05;9.52;;;;;;;17.52;100.00;101012.53;3597480;39;20205;-62
2021/08/05 06:42:48;;;;;;;;;;;;;;;17.05;100.00;101010.72;3598851;39;20048;-63
2021/08/05 06:45:15;;;;;;;11.65;10.45;;;;;;;17.28;100.00;101012.66;3598203;39;19938;-63
2021/08/05 06:47:45;;;;;;;11.40;10.20;;;;;;;17.01;100.00;101003.94;3598155;39;20064;-62
2021/08/05 06:50:12;;;;;;;13.57;11.65;;;;;;;16.77;100.00;101011.09;3597487;39;20029;-63
2021/08/05 06:52:39;;;;;;;13.38;11.90;;;;;;;16.92;100.00;100999.53;3598107;39;20072;-63
2021/08/05 06:55:06;;;;;;;13.55;12.25;;;;;;;16.91;100.00;101000.56;3597937;39;20032;-63
2021/08/05 06:57:34;;;;;;;15.02;13.27;;;;;;;17.02;100.00;101000.19;3595581;40;20070;-63
2021/08/05 07:00:01;;;;;;;14.88;13.38;;;;;;;16.99;100.00;100998.66;3597675;39;20409;-63
2021/08/05 07:02:27;;;;;;;14.13;12.73;;;;;;;17.16;100.00;101004.88;3597846;39;20056;-63
2021/08/05 07:04:54;;;;;;;13.85;12.48;;;;;;;17.39;100.00;101005.97;3598209;39;20058;-63
2021/08/05 07:07:21;;;;;;;14.40;12.57;;;;;;;17.62;100.00;101000.56;3598052;39;20032;-63
2021/08/05 07:09:47;;;;;;;12.25;10.55;;;;;;;17.83;100.00;101000.78;3598078;39;20367;-63
2021/08/05 07:12:14;;;;;;;12.52;11.20;;;;;;;18.13;100.00;100992.78;3597723;39;20040;-63
2021/08/05 07:14:42;;;;;;;12.43;10.85;;;;;;;18.26;100.00;101004.94;3597912;39;20070;-63
2021/08/05 07:17:09;;;;;;;13.82;11.93;;;;;;;17.49;100.00;100993.84;3598251;39;20071;-63
2021/08/05 07:22:32;;;;;;;11.65;9.90;;;;;;;18.49;100.00;100983.94;3637963;22;20048;-63
2021/08/05 07:24:58;;;;;;;10.60;9.32;;;;;;;18.73;100.00;100987.47;3602104;39;20036;-63
2021/08/05 07:27:25;;;;;;;13.13;10.50;;;;;;;18.72;100.00;100980.31;3608026;39;20044;-62
2021/08/05 07:29:53;;;;;;;11.48;10.38;;;;;;;18.43;100.00;100984.66;3607751;39;20408;-63
2021/08/05 07:32:19;;;;;;;14.95;10.45;;;;;;;18.96;100.00;100973.75;3607327;39;20032;-63
2021/08/05 07:34:45;;;;;;;10.73;9.35;;;;;;;18.81;100.00;100971.00;3607592;39;20025;-63
2021/08/05 07:37:12;;;;;;;9.45;8.27;;;;;;;18.94;100.00;100970.38;3607958;39;20067;-63
2021/08/05 07:39:39;;;;;;;11.88;9.77;;;;;;;18.85;100.00;100971.47;3608949;39;20032;-63
2021/08/05 07:42:06;;;;;;;11.48;10.25;;;;;;;18.76;100.00;100978.91;3609009;39;20027;-63
2021/08/05 07:44:32;;;;;;;10.77;9.68;;;;;;;19.11;100.00;100964.72;3609164;39;20047;-63
2021/08/05 07:47:00;;;;;;;13.52;9.05;;;;;;;19.55;100.00;100964.63;3609440;39;20024;-63
2021/08/05 07:49:27;;;;;;;11.82;9.23;;;;;;;19.82;100.00;100967.69;3609179;39;20412;-63
2021/08/05 07:51:53;;;;;;;12.00;9.02;;;;;;;19.84;100.00;100965.59;3609332;39;20026;-63
2021/08/05 07:54:20;;;;;;;9.02;8.20;;;;;;;20.01;100.00;100959.84;3609258;39;20039;-63
2021/08/05 07:56:46;;;;;;;9.95;7.72;;;;;;;20.10;100.00;100964.16;3607231;39;20032;-63
2021/08/05 07:59:12;;;;;;;8.82;7.95;;;;;;;20.23;100.00;100958.81;3608814;39;20044;-64
2021/08/05 08:01:39;;;;;;;8.48;7.68;;;;;;;20.41;100.00;100960.22;3609373;39;20059;-63
2021/08/05 08:04:07;;;;;;;8.07;7.25;;;;;;;20.18;100.00;100961.28;3609104;39;20301;-63
2021/08/05 08:06:33;;;;;;;7.43;6.65;;;;;;;20.87;100.00;100950.66;3609573;39;20046;-63
2021/08/05 08:08:59;;;;;;;8.30;7.60;;;;;;;20.47;100.00;100949.31;3609194;39;20039;-64
2021/08/05 08:11:26;;;;;;;8.98;8.07;;;;;;;19.97;100.00;100953.13;3609616;39;20082;-63
2021/08/05 08:13:53;;;;;;;8.40;6.97;;;;;;;20.33;100.00;100952.97;3608856;39;20068;-63
2021/08/05 08:16:20;;;;;;;9.55;7.15;;;;;;;20.72;100.00;100934.38;3608553;39;20042;-63
2021/08/05 08:18:47;;;;;;;7.35;6.43;;;;;;;20.92;100.00;100939.94;3609390;39;20124;-63
2021/08/05 08:21:15;;;;;;;8.77;7.00;;;;;;;20.88;100.00;100938.66;3608954;39;20028;-63
2021/08/05 08:23:42;;;;;;;8.48;7.68;;;;;;;21.09;100.00;100940.44;3605149;39;20036;-63
2021/08/05 08:26:08;;;;;;;10.55;7.75;;;;;;;20.76;100.00;100943.84;3606851;39;20348;-63
2021/08/05 08:28:36;;;;;;;9.20;8.20;;;;;;;20.78;100.00;100939.03;3609116;39;20039;-63
2021/08/05 08:31:03;;;;;;;9.70;7.78;;;;;;;20.57;100.00;100938.03;3608916;39;20092;-63
2021/08/05 08:33:30;;;;;;;9.80;8.25;;;;;;;20.41;100.00;100938.34;3609485;39;20056;-63
2021/08/05 08:35:57;;;;;;;9.60;8.68;;;;;;;20.71;100.00;100936.22;3609038;39;20297;-63
2021/08/05 08:38:25;;;;;;;10.00;8.88;;;;;;;20.46;100.00;100924.91;3608699;39;20055;-63
2021/08/05 08:40:55;;;;;;;10.25;9.25;;;;;;;20.74;100.00;100915.84;3609064;39;20051;-63
2021/08/05 08:43:21;;;;;;;11.27;9.20;;;;;;;21.21;100.00;100921.53;3609161;39;20038;-63
2021/08/05 08:45:51;;;;;;;9.40;8.40;;;;;;;21.21;100.00;100916.06;3609061;39;20028;-63
2021/08/05 08:48:18;;;;;;;9.45;7.70;;;;;;;21.80;100.00;100915.38;3608918;39;20055;-65
2021/08/05 08:50:45;;;;;;;8.13;7.32;;;;;;;21.80;100.00;100920.03;3608553;39;20039;-63
2021/08/05 08:53:15;;;;;;;9.70;8.20;;;;;;;22.09;100.00;100912.47;3609002;39;20030;-63
2021/08/05 08:55:45;;;;;;;8.45;7.65;;;;;;;22.35;100.00;100909.72;3609158;39;20038;-63
2021/08/05 08:58:13;;;;;;;7.85;7.05;;;;;;;21.32;100.00;100923.69;3606382;39;20048;-63
2021/08/05 09:00:39;;;;;;;11.23;7.68;;;;;;;21.47;100.00;100920.78;3609129;39;20020;-63
2021/08/05 09:03:07;;;;;;;10.15;7.03;;;;;;;21.37;100.00;100914.84;3608901;39;20036;-63
2021/08/05 09:05:34;;;;;;;9.65;8.23;;;;;;;21.18;100.00;100918.16;3608669;39;20060;-63
2021/08/05 09:08:02;;;;;;;11.35;7.80;;;;;;;21.16;100.00;100914.78;3609492;39;20054;-63
2021/08/05 09:10:29;;;;;;;7.97;6.75;;;;;;;21.18;100.00;100911.84;3608376;39;20067;-63
2021/08/05 09:12:58;;;;;;;9.65;7.95;;;;;;;21.30;100.00;100903.88;3609031;39;20359;-63
2021/08/05 09:15:36;;;;;;;7.70;6.97;;;;;;;21.68;100.00;100900.63;3608868;39;20044;-63
2021/08/05 09:18:03;;;;;;;9.07;6.87;;;;;;;21.97;100.00;100899.38;3608447;39;20035;-64
2021/08/05 09:20:30;;;;;;;7.60;5.85;;;;;;;22.62;100.00;100893.19;3608721;39;20047;-63
2021/08/05 09:22:56;;;;;;;8.73;6.20;;;;;;;22.30;100.00;100901.25;3601346;39;20046;-64
2021/08/05 09:25:34;;;;;;;9.98;7.05;;;;;;;22.79;100.00;100899.06;3598516;40;20106;-61
2021/08/05 09:28:14;;;;;;;10.00;8.27;;;;;;;22.68;100.00;100900.56;3598686;40;20044;-61
2021/08/05 09:30:42;;;;;;;15.38;8.93;;;;;;;22.80;100.00;100897.16;3598301;40;20056;-61
2021/08/05 09:33:11;;;;;;;12.25;7.30;;;;;;;22.63;100.00;100894.91;3598549;40;20052;-61
2021/08/05 09:35:50;;;;;;;8.90;7.10;;;;;;;22.95;100.00;100886.75;3625584;22;20137;-62
2021/08/05 09:38:26;;;;;;;8.15;6.70;;;;;;;23.34;100.00;100887.66;3587284;39;20028;-62
2021/08/05 09:41:08;;;;;;;8.57;7.07;;;;;;;23.58;100.00;100880.50;3588471;39;20028;-62
2021/08/05 09:43:38;;;;;;;7.60;6.90;;;;;;;23.44;100.00;100882.53;3588236;39;20029;-62
2021/08/05 09:46:50;;;;;;;9.10;6.68;;;;;;;22.95;100.00;100875.75;3613770;22;20080;-62
2021/08/05 09:49:18;;;;;;;5.38;4.50;;;;;;;23.70;100.00;100869.66;3586428;40;20062;-62
2021/08/05 09:51:44;;;;;;;5.38;3.90;;;;;;;23.39;100.00;100876.84;3588195;40;20041;-62
2021/08/05 09:54:12;;;;;;;4.20;3.30;;;;;;;23.69;100.00;100872.63;3587904;40;20036;-62
2021/08/05 09:56:38;;;;;;;6.57;4.72;;;;;;;22.91;100.00;100869.88;3588299;40;20421;-62
2021/08/05 09:59:11;;;;;;;7.80;3.95;;;;;;;22.47;100.00;100867.94;3588328;40;20036;-62
2021/08/05 10:01:56;;;;;;;4.57;3.33;;;;;;;22.71;100.00;100872.69;3587981;40;20033;-62
2021/08/05 10:04:24;;;;;;;5.25;3.80;;;;;;;23.32;100.00;100867.81;3587834;40;20362;-62
2021/08/05 10:07:14;;;;;;;4.60;3.03;;;;;;;23.73;100.00;100852.75;3588066;40;20110;-62
2021/08/05 10:09:41;;;;;;;5.07;3.10;;;;;;;23.40;100.00;100858.47;3586255;40;20036;-62
2021/08/05 10:12:17;;;;;;;4.82;2.70;;;;;;;23.66;100.00;100851.94;3588335;40;20044;-63
2021/08/05 10:14:47;;;;;;;3.00;2.55;;;;;;;23.97;100.00;100853.00;3588146;40;20044;-62
2021/08/05 10:17:15;;;;;;;2.67;2.30;;;;;;;24.36;100.00;100834.38;3588161;40;20069;-62
2021/08/05 10:19:43;;;;;;;4.70;2.50;;;;;;;24.67;100.00;100843.59;3588058;40;20087;-62
2021/08/05 10:22:11;;;;;;;3.33;2.50;;;;;;;24.93;100.00;100845.16;3587813;40;20311;-63
2021/08/05 10:24:40;;;;;;;3.33;2.08;;;;;;;24.76;100.00;100844.94;3582168;40;20025;-63
2021/08/05 10:27:08;;;;;;;2.42;2.20;;;;;;;24.49;100.00;100833.41;3588473;40;20060;-62
2021/08/05 10:29:36;;;;;;;9.38;2.92;;;;;;;24.26;100.00;100834.06;3587981;40;20323;-62
2021/08/05 10:32:06;;;;;;;3.30;2.25;;;;;;;24.56;100.00;100839.69;3587932;40;20045;-62
2021/08/05 10:34:34;;;;;;;4.55;3.13;;;;;;;24.27;100.00;100836.59;3587705;40;20052;-62
2021/08/05 10:37:01;;;;;;;3.63;3.13;;;;;;;23.84;100.00;100836.59;3588093;40;20036;-62
2021/08/05 10:39:28;;;;;;;6.47;3.03;;;;;;;23.98;100.00;100840.06;3587916;40;20025;-62
2021/08/05 10:41:57;;;;;;;5.60;3.10;;;;;;;23.58;100.00;100842.03;3588366;40;20044;-62
2021/08/05 10:44:25;;;;;;;5.53;3.05;;;;;;;23.46;100.00;100840.25;3587778;40;20036;-63
2021/08/05 10:46:52;;;;;;;3.28;2.65;;;;;;;23.82;100.00;100836.78;3589080;40;20411;-63
2021/08/05 10:49:20;;;;;;;3.10;2.80;;;;;;;23.95;100.00;100822.97;3598151;39;20062;-63
2021/08/05 10:51:46;;;;;;;3.22;2.75;;;;;;;23.48;100.00;100832.63;3598002;39;20043;-63
2021/08/05 10:54:13;;;;;;;3.88;3.00;;;;;;;23.69;100.00;100821.28;3597443;39;20345;-62
2021/08/05 10:56:39;;;;;;;3.35;2.63;;;;;;;24.35;100.00;100809.88;3595738;40;20066;-63
2021/08/05 10:59:11;;;;;;;4.55;3.20;;;;;;;24.14;100.00;100809.25;3597737;39;20048;-63
2021/08/05 11:01:52;;;;;;;3.85;2.78;;;;;;;24.28;100.00;100807.19;3597899;39;20310;-63
2021/08/05 11:04:50;;;;;;;4.13;2.90;;;;;;;23.79;100.00;100810.59;3597566;39;20426;-63
2021/08/05 11:07:24;;;;;;;7.20;2.90;;;;;;;23.42;100.00;100812.38;3597814;39;20028;-63
2021/08/05 11:09:51;;;;;;;6.65;3.25;;;;;;;23.48;100.00;100799.66;3598035;39;20032;-62
2021/08/05 11:12:39;;;;;;;3.88;3.22;;;;;;;23.44;100.00;100804.78;3597582;39;20040;-63
2021/08/05 11:15:38;;;;;;;4.18;3.17;;;;;;;23.51;100.00;100801.97;3597602;39;20035;-63
2021/08/05 11:18:16;;;;;;;4.47;3.53;;;;;;;23.15;100.00;100806.25;3597442;39;20301;-63
2021/08/05 11:23:42;;;;;;;6.32;3.90;;;;;;;22.08;100.00;100795.66;3642844;22;20044;-63